Time,TemperatureF,DewpointF,PressureIn,WindDirection,WindDirectionDegrees,WindSpeedMPH,WindSpeedGustMPH,Humidity,HourlyPrecipIn,Conditions,Clouds,dailyrainin,SoftwareType,DateUTC
2013-06-17 15:33:00,65.0,41.0,30.26,North,-999,-999.0,-999.0,41,-99.99,,,-99.99,,2013-06-17 21:33:00,
2013-06-17 15:43:00,65.0,41.0,30.26,North,-999,-999.0,-999.0,41,-99.99,,,-99.99,,2013-06-17 21:43:00,
2013-06-17 15:52:00,66.0,34.0,30.24,North,-999,-999.0,-999.0,30,-99.99,,,-99.99,,2013-06-17 21:52:00,
2013-06-17 16:01:00,66.0,34.0,30.24,North,-999,-999.0,-999.0,30,-99.99,,,-99.99,,2013-06-17 22:01:00,
2013-06-17 16:11:00,66.0,34.0,30.24,North,-999,-999.0,-999.0,30,-99.99,,,-99.99,,2013-06-17 22:11:00,
2013-06-17 16:22:00,72.0,-99.9,30.24,North,-999,-999.0,-999.0,19,-99.99,,,-99.99,,2013-06-17 22:22:00,
2013-06-17 16:34:00,72.0,-99.9,30.24,North,-999,-999.0,-999.0,19,-99.99,,,-99.99,,2013-06-17 22:34:00,
2013-06-17 16:43:00,72.0,-99.9,30.24,North,-999,-999.0,-999.0,19,-99.99,,,-99.99,,2013-06-17 22:43:00,
2013-06-17 16:53:00,71.0,31.0,30.24,North,-999,-999.0,-999.0,22,-99.99,,,-99.99,,2013-06-17 22:53:00,
2013-06-17 17:02:00,71.0,31.0,30.24,North,-999,-999.0,-999.0,22,-99.99,,,-99.99,,2013-06-17 23:02:00,
2013-06-17 17:11:00,71.0,31.0,30.24,North,-999,-999.0,-999.0,22,-99.99,,,-99.99,,2013-06-17 23:11:00,
2013-06-17 17:22:00,70.0,34.0,30.24,North,-999,-999.0,-999.0,27,-99.99,,,-99.99,,2013-06-17 23:22:00,
2013-06-17 17:32:00,70.0,34.0,30.24,North,-999,-999.0,-999.0,27,-99.99,,,-99.99,,2013-06-17 23:32:00,
2013-06-17 17:43:00,70.0,34.0,30.24,North,-999,-999.0,-999.0,27,-99.99,,,-99.99,,2013-06-17 23:43:00,
2013-06-17 17:53:00,71.0,32.0,30.23,North,-999,-999.0,-999.0,24,-99.99,,,-99.99,,2013-06-17 23:53:00,
2013-06-17 18:01:00,71.0,32.0,30.23,North,-999,-999.0,-999.0,24,-99.99,,,-99.99,,2013-06-18 00:01:00,
2013-06-17 18:12:00,71.0,32.0,30.23,North,-999,-999.0,-999.0,24,-99.99,,,-99.99,,2013-06-18 00:12:00,
2013-06-17 18:22:00,71.0,32.0,30.23,North,-999,-999.0,-999.0,24,-99.99,,,-99.99,,2013-06-18 00:22:00,
2013-06-17 18:52:00,70.0,33.0,30.22,North,-999,-999.0,-999.0,25,-99.99,,,-99.99,,2013-06-18 00:52:00,
2013-06-17 19:01:00,70.0,33.0,30.22,North,-999,-999.0,-999.0,25,-99.99,,,-99.99,,2013-06-18 01:01:00,
2013-06-17 19:11:00,70.0,33.0,30.22,North,-999,-999.0,-999.0,25,-99.99,,,-99.99,,2013-06-18 01:11:00,
2013-06-17 19:23:00,69.0,34.0,30.22,North,-999,-999.0,-999.0,27,-99.99,,,-99.99,,2013-06-18 01:23:00,
2013-06-17 19:34:00,69.0,34.0,30.22,North,-999,-999.0,-999.0,27,-99.99,,,-99.99,,2013-06-18 01:34:00,
2013-06-17 19:44:00,69.0,34.0,30.22,North,-999,-999.0,-999.0,27,-99.99,,,-99.99,,2013-06-18 01:44:00,
2013-06-17 19:53:00,69.0,37.0,30.23,North,-999,-999.0,-999.0,30,-99.99,,,-99.99,,2013-06-18 01:53:00,
2013-06-17 20:02:00,69.0,37.0,30.23,North,-999,-999.0,-999.0,30,-99.99,,,-99.99,,2013-06-18 02:02:00,
2013-06-17 20:11:00,69.0,37.0,30.23,North,-999,-999.0,-999.0,30,-99.99,,,-99.99,,2013-06-18 02:11:00,
2013-06-17 20:22:00,65.0,35.0,30.24,North,-999,-999.0,-999.0,31,-99.99,,,-99.99,,2013-06-18 02:22:00,
2013-06-17 20:34:00,65.0,35.0,30.24,North,-999,-999.0,-999.0,31,-99.99,,,-99.99,,2013-06-18 02:34:00,
2013-06-17 20:43:00,65.0,35.0,30.24,North,-999,-999.0,-999.0,31,-99.99,,,-99.99,,2013-06-18 02:43:00,
2013-06-17 20:53:00,64.0,34.0,30.24,North,-999,-999.0,-999.0,32,-99.99,,,-99.99,,2013-06-18 02:53:00,
2013-06-17 21:02:00,64.0,34.0,30.24,North,-999,-999.0,-999.0,32,-99.99,,,-99.99,,2013-06-18 03:02:00,
2013-06-17 21:12:00,64.0,34.0,30.24,North,-999,-999.0,-999.0,32,-99.99,,,-99.99,,2013-06-18 03:12:00,
2013-06-17 21:23:00,62.0,34.0,30.25,North,-999,-999.0,-999.0,35,-99.99,,,-99.99,,2013-06-18 03:23:00,
2013-06-17 21:34:00,62.0,34.0,30.25,North,-999,-999.0,-999.0,35,-99.99,,,-99.99,,2013-06-18 03:34:00,
2013-06-17 21:43:00,62.0,34.0,30.25,North,-999,-999.0,-999.0,35,-99.99,,,-99.99,,2013-06-18 03:43:00,
2013-06-17 21:53:00,60.0,37.0,30.26,North,-999,-999.0,-999.0,41,-99.99,,,-99.99,,2013-06-18 03:53:00,
2013-06-17 22:02:00,60.0,37.0,30.26,North,-999,-999.0,-999.0,41,-99.99,,,-99.99,,2013-06-18 04:02:00,
2013-06-17 22:12:00,60.0,37.0,30.26,North,-999,-999.0,-999.0,41,-99.99,,,-99.99,,2013-06-18 04:12:00,
2013-06-17 22:22:00,58.0,44.0,30.28,North,-999,-999.0,-999.0,60,-99.99,,,-99.99,,2013-06-18 04:22:00,
2013-06-17 22:34:00,58.0,44.0,30.28,North,-999,-999.0,-999.0,60,-99.99,,,-99.99,,2013-06-18 04:34:00,
2013-06-17 22:43:00,58.0,44.0,30.28,North,-999,-999.0,-999.0,60,-99.99,,,-99.99,,2013-06-18 04:43:00,
2013-06-17 22:53:00,56.0,44.0,30.29,North,-999,-999.0,-999.0,63,-99.99,,,-99.99,,2013-06-18 04:53:00,
2013-06-17 23:02:00,56.0,44.0,30.29,North,-999,-999.0,-999.0,63,-99.99,,,-99.99,,2013-06-18 05:02:00,
2013-06-17 23:12:00,56.0,44.0,30.29,North,-999,-999.0,-999.0,63,-99.99,,,-99.99,,2013-06-18 05:12:00,
2013-06-17 23:22:00,56.0,45.0,30.29,North,-999,-999.0,-999.0,66,-99.99,,,-99.99,,2013-06-18 05:22:00,
2013-06-17 23:33:00,56.0,45.0,30.29,North,-999,-999.0,-999.0,66,-99.99,,,-99.99,,2013-06-18 05:33:00,
2013-06-17 23:43:00,56.0,45.0,30.29,North,-999,-999.0,-999.0,66,-99.99,,,-99.99,,2013-06-18 05:43:00,
2013-06-17 23:53:00,55.0,45.0,30.28,North,-999,-999.0,-999.0,70,-99.99,,,-99.99,,2013-06-18 05:53:00,